createdAt,value
2018-06-02T00:00:53.960Z,26.27
2018-06-02T00:01:57.215Z,44.08
2018-06-02T00:02:59.690Z,42.30
2018-06-02T00:04:02.173Z,47.10
2018-06-02T00:05:05.537Z,40.53
2018-06-02T00:06:08.061Z,47.05
2018-06-02T00:07:10.600Z,43.45
2018-06-02T00:08:13.086Z,32.88
2018-06-02T00:09:16.355Z,45.63
2018-06-02T00:10:18.991Z,37.67
2018-06-02T00:11:21.573Z,41.72
2018-06-02T00:12:24.018Z,44.03
2018-06-02T00:13:26.493Z,39.67
2018-06-02T00:14:28.968Z,37.40
2018-06-02T00:15:35.288Z,47.00
2018-06-02T00:16:37.788Z,43.87
2018-06-02T00:17:40.270Z,40.15
2018-06-02T00:18:42.782Z,47.58
2018-06-02T00:19:45.287Z,48.03
2018-06-02T00:20:47.803Z,43.03
2018-06-02T00:21:51.091Z,39.78
2018-06-02T00:22:53.570Z,37.88
2018-06-02T00:23:58.965Z,38.70
2018-06-02T00:25:01.595Z,47.80
2018-06-02T00:26:04.131Z,49.08
2018-06-02T00:27:06.625Z,42.60
2018-06-02T00:28:09.153Z,45.92
2018-06-02T00:29:11.740Z,45.42
2018-06-02T00:30:14.240Z,42.30
2018-06-02T00:31:16.750Z,50.33
2018-06-02T00:32:19.983Z,47.08
2018-06-02T00:33:22.469Z,37.78
2018-06-02T00:34:24.948Z,37.28
2018-06-02T00:35:27.469Z,47.25
2018-06-02T00:36:29.993Z,40.65
2018-06-02T00:37:32.508Z,48.65
2018-06-02T00:38:35.015Z,48.55
2018-06-02T00:39:37.500Z,45.53
2018-06-02T00:40:40.018Z,42.85
2018-06-02T00:41:43.131Z,29.98
2018-06-02T00:42:45.619Z,39.55
2018-06-02T00:43:48.885Z,42.85
2018-06-02T00:44:51.378Z,46.70
2018-06-02T00:45:53.878Z,45.45
2018-06-02T00:46:56.381Z,42.28
2018-06-02T00:47:58.875Z,30.65
2018-06-02T00:49:01.375Z,40.22
2018-06-02T00:50:03.897Z,36.53
2018-06-02T00:51:07.156Z,25.40
2018-06-02T00:52:10.485Z,36.65
2018-06-02T00:53:12.971Z,45.05
2018-06-02T00:54:15.457Z,32.97
2018-06-02T00:55:17.942Z,39.28
2018-06-02T00:56:20.417Z,29.05
2018-06-02T00:57:22.938Z,42.05
2018-06-02T00:58:25.423Z,35.30
2018-06-02T00:59:27.909Z,32.50
2018-06-02T01:00:30.400Z,41.67
2018-06-02T01:01:32.889Z,34.20
2018-06-02T01:02:36.158Z,33.20
2018-06-02T01:03:39.410Z,40.35
2018-06-02T01:04:41.896Z,26.30
2018-06-02T01:05:44.399Z,34.65
2018-06-02T01:06:47.646Z,31.45
2018-06-02T01:07:50.137Z,42.50
2018-06-02T01:08:52.630Z,28.77
2018-06-02T01:09:56.270Z,23.60
2018-06-02T01:10:58.772Z,31.08
2018-06-02T01:12:01.259Z,41.85
2018-06-02T01:13:04.537Z,26.42
2018-06-02T01:14:07.032Z,34.97
2018-06-02T01:15:09.549Z,38.53
2018-06-02T01:16:12.035Z,38.38
2018-06-02T01:17:14.546Z,34.45
2018-06-02T01:18:24.610Z,23.48
2018-06-02T01:19:27.110Z,31.40
2018-06-02T01:20:29.604Z,36.97
2018-06-02T01:21:32.100Z,30.77
2018-06-02T01:22:35.347Z,40.95
2018-06-02T01:24:46.074Z,23.77
2018-06-02T01:25:49.328Z,27.10
2018-06-02T01:26:51.807Z,35.67
2018-06-02T01:27:54.311Z,39.63
2018-06-02T01:28:56.819Z,40.55
2018-06-02T01:29:59.294Z,24.00
2018-06-02T01:31:01.780Z,28.77
2018-06-02T01:32:04.270Z,40.30
2018-06-02T01:33:06.785Z,32.95
2018-06-02T01:34:09.303Z,35.15
2018-06-02T01:35:11.785Z,26.30
2018-06-02T01:36:14.261Z,30.42
2018-06-02T01:37:17.506Z,28.40
2018-06-02T01:38:19.983Z,26.77
2018-06-02T01:39:22.520Z,49.10
2018-06-02T01:40:25.003Z,28.45
2018-06-02T01:41:27.504Z,43.97
2018-06-02T01:42:29.983Z,37.10
2018-06-02T01:43:32.475Z,35.22
2018-06-02T01:44:35.730Z,27.50
2018-06-02T01:45:38.219Z,41.15
2018-06-02T01:46:41.475Z,26.52
2018-06-02T01:47:43.963Z,31.50
2018-06-02T01:48:46.480Z,36.53
2018-06-02T01:49:48.960Z,43.72
2018-06-02T01:50:51.462Z,36.20
2018-06-02T01:51:53.944Z,37.83
2018-06-02T01:52:56.421Z,43.80
2018-06-02T01:53:58.925Z,36.28
2018-06-02T01:55:01.415Z,31.17
2018-06-02T01:56:04.706Z,27.27
2018-06-02T01:57:07.193Z,29.40
2018-06-02T01:58:09.716Z,47.38
2018-06-02T01:59:12.977Z,42.20
2018-06-02T02:00:15.453Z,40.58
2018-06-02T02:01:17.931Z,46.85
2018-06-02T02:02:21.188Z,49.42
2018-06-02T02:03:23.679Z,41.75
2018-06-02T02:04:26.168Z,41.20
2018-06-02T02:05:30.840Z,39.25
2018-06-02T02:06:33.323Z,48.55
2018-06-02T02:07:35.816Z,40.65
2018-06-02T02:08:38.325Z,40.15
2018-06-02T02:09:44.382Z,49.58
2018-06-02T02:10:46.892Z,53.92
2018-06-02T02:11:49.390Z,50.78
2018-06-02T02:12:52.639Z,35.55
2018-06-02T02:13:55.128Z,40.38
2018-06-02T02:14:57.623Z,40.03
2018-06-02T02:16:00.878Z,38.25
2018-06-02T02:17:03.380Z,41.60
2018-06-02T02:18:06.640Z,31.75
2018-06-02T02:19:09.169Z,32.35
2018-06-02T02:21:21.696Z,38.80
2018-06-02T02:22:24.182Z,47.60
2018-06-02T02:23:26.655Z,47.45
2018-06-02T02:24:29.224Z,53.80
2018-06-02T02:25:31.733Z,43.75
2018-06-02T02:26:34.216Z,47.25
2018-06-02T02:27:37.460Z,37.10
2018-06-02T02:28:39.942Z,39.58
2018-06-02T02:29:42.432Z,35.08
2018-06-02T02:30:46.143Z,46.22
2018-06-02T02:31:50.560Z,38.35
2018-06-02T02:32:53.930Z,40.70
2018-06-02T02:33:56.418Z,39.17
2018-06-02T02:34:59.686Z,40.38
2018-06-02T02:36:02.184Z,44.67
2018-06-02T02:37:05.455Z,47.58
2018-06-02T02:38:07.925Z,37.50
2018-06-02T02:39:10.412Z,41.80
2018-06-02T02:40:12.900Z,44.97
2018-06-02T02:42:23.357Z,38.50
2018-06-02T02:43:25.898Z,36.97
2018-06-02T02:44:28.384Z,39.40
2018-06-02T02:45:31.634Z,34.47
2018-06-02T02:46:34.148Z,35.05
2018-06-02T02:47:37.397Z,36.05
2018-06-02T02:48:39.881Z,33.70
2018-06-02T02:49:42.363Z,34.33
2018-06-02T02:50:44.847Z,34.55
2018-06-02T02:51:48.106Z,33.60
2018-06-02T02:52:50.591Z,32.65
2018-06-02T02:53:53.080Z,34.80
2018-06-02T02:54:56.335Z,30.88
2018-06-02T02:55:58.813Z,29.83
2018-06-02T02:57:01.296Z,30.02
2018-06-02T02:58:03.790Z,31.75
2018-06-02T02:59:06.284Z,28.98
2018-06-02T03:00:08.867Z,28.38
2018-06-02T03:01:11.464Z,30.30
2018-06-02T03:02:13.979Z,28.00
2018-06-02T03:03:16.450Z,26.12
2018-06-02T03:04:18.961Z,29.00
2018-06-02T03:05:21.438Z,28.67
2018-06-02T03:06:23.936Z,28.67
2018-06-02T03:07:26.469Z,27.20
2018-06-02T03:08:28.941Z,24.27
2018-06-02T03:09:31.423Z,25.33
2018-06-02T03:10:33.897Z,22.62
2018-06-02T03:11:36.388Z,25.23
2018-06-02T03:12:38.917Z,19.08
2018-06-02T03:13:41.404Z,20.42
2018-06-02T03:14:43.886Z,23.85
2018-06-02T03:15:46.384Z,22.20
2018-06-02T03:16:49.652Z,19.40
2018-06-02T03:17:52.135Z,22.83
2018-06-02T03:18:55.423Z,22.83
2018-06-02T03:19:58.719Z,21.73
2018-06-02T03:21:01.162Z,18.95
2018-06-02T03:22:05.374Z,17.08
2018-06-02T03:23:07.854Z,17.95
2018-06-02T03:24:11.130Z,17.55
2018-06-02T03:25:13.609Z,16.65
2018-06-02T03:26:16.137Z,18.15
2018-06-02T03:27:18.635Z,17.62
2018-06-02T03:28:21.154Z,16.25
2018-06-02T03:29:23.617Z,15.38
2018-06-02T03:30:26.117Z,15.35
2018-06-02T03:31:28.637Z,13.55
2018-06-02T03:32:31.148Z,13.05
2018-06-02T03:33:33.621Z,14.75
2018-06-02T03:34:36.119Z,14.20
2018-06-02T03:35:38.606Z,14.38
2018-06-02T03:36:41.150Z,14.55
2018-06-02T03:37:44.759Z,14.65
2018-06-02T03:38:47.264Z,16.27
2018-06-02T03:39:49.739Z,10.68
2018-06-02T03:40:53.038Z,14.35
2018-06-02T03:41:56.286Z,14.15
2018-06-02T03:42:58.791Z,13.20
2018-06-02T03:44:02.037Z,9.73
2018-06-02T03:45:04.551Z,11.32
2018-06-02T03:46:07.802Z,10.77
2018-06-02T03:47:10.353Z,13.25
2018-06-02T03:48:14.563Z,15.45
2018-06-02T03:49:17.089Z,12.18
2018-06-02T03:50:19.574Z,15.52
2018-06-02T03:51:22.056Z,14.82
2018-06-02T03:52:24.539Z,12.93
2018-06-02T03:53:27.034Z,9.13
2018-06-02T03:54:29.519Z,9.23
2018-06-02T03:55:31.999Z,12.07
2018-06-02T03:56:35.256Z,15.52
2018-06-02T03:57:37.738Z,12.35
2018-06-02T03:58:44.036Z,10.52
2018-06-02T03:59:46.535Z,8.48
2018-06-02T04:00:49.007Z,8.75
2018-06-02T04:01:51.492Z,13.18
2018-06-02T04:02:53.970Z,10.90
2018-06-02T04:03:59.995Z,8.45
2018-06-02T04:05:02.462Z,14.23
2018-06-02T04:06:05.009Z,10.90
2018-06-02T04:07:07.488Z,8.60
2018-06-02T04:08:10.034Z,8.35
2018-06-02T04:09:14.007Z,8.88
2018-06-02T04:10:16.489Z,9.60
2018-06-02T04:11:18.978Z,9.23
2018-06-02T04:12:21.466Z,9.48
2018-06-02T04:13:24.725Z,11.23
2018-06-02T04:14:27.256Z,7.53
2018-06-02T04:15:29.756Z,9.00
2018-06-02T04:16:32.232Z,7.43
2018-06-02T04:17:34.714Z,9.32
2018-06-02T04:18:37.192Z,9.68
2018-06-02T04:19:40.457Z,8.70
2018-06-02T04:20:42.935Z,9.80
2018-06-02T04:21:45.427Z,8.23
2018-06-02T04:22:48.678Z,6.60
2018-06-02T04:23:51.161Z,7.55
2018-06-02T04:24:53.671Z,7.18
2018-06-02T04:25:56.225Z,8.38
2018-06-02T04:26:58.825Z,9.05
2018-06-02T04:28:01.317Z,7.72
2018-06-02T04:29:03.812Z,11.40
2018-06-02T04:30:12.443Z,12.57
2018-06-02T04:31:15.178Z,11.32
2018-06-02T04:32:17.650Z,7.78
2018-06-02T04:33:20.139Z,7.37
2018-06-02T04:34:22.631Z,11.85
2018-06-02T04:35:25.126Z,7.07
2018-06-02T04:36:28.416Z,7.18
2018-06-02T04:37:30.903Z,9.68
2018-06-02T04:38:34.831Z,15.18
2018-06-02T04:39:37.340Z,6.57
2018-06-02T04:40:39.822Z,7.93
2018-06-02T04:41:43.065Z,9.05
2018-06-02T04:42:45.560Z,12.70
2018-06-02T04:43:48.042Z,8.68
2018-06-02T04:44:50.540Z,7.03
2018-06-02T04:45:53.020Z,5.93
2018-06-02T04:46:55.520Z,12.32
2018-06-02T04:47:57.998Z,9.25
2018-06-02T04:49:00.497Z,6.32
2018-06-02T04:50:02.997Z,10.23
2018-06-02T04:51:05.492Z,13.68
2018-06-02T04:52:07.974Z,8.05
2018-06-02T04:53:10.445Z,5.65
2018-06-02T04:54:12.982Z,5.12
2018-06-02T04:55:15.472Z,6.18
2018-06-02T04:56:17.952Z,6.10
2018-06-02T04:57:20.432Z,7.18
2018-06-02T04:58:22.926Z,9.30
2018-06-02T04:59:25.446Z,6.50
2018-06-02T05:00:27.945Z,6.05
2018-06-02T05:01:30.429Z,6.28
2018-06-02T05:02:33.020Z,5.90
2018-06-02T05:03:36.267Z,6.57
2018-06-02T05:04:39.288Z,6.07
2018-06-02T05:05:43.992Z,6.30
2018-06-02T05:06:46.483Z,8.20
2018-06-02T05:07:48.965Z,6.05
2018-06-02T05:08:51.455Z,9.88
2018-06-02T05:09:53.932Z,5.87
2018-06-02T05:10:56.448Z,10.10
2018-06-02T05:11:58.941Z,8.13
2018-06-02T05:13:02.193Z,6.57
2018-06-02T05:14:04.671Z,6.25
2018-06-02T05:15:07.209Z,10.05
2018-06-02T05:16:11.095Z,7.72
2018-06-02T05:17:14.342Z,5.97
2018-06-02T05:18:16.884Z,7.78
2018-06-02T05:19:19.358Z,7.90
2018-06-02T05:21:30.523Z,16.70
2018-06-02T05:22:33.012Z,11.82
2018-06-02T05:23:35.510Z,7.00
2018-06-02T05:24:38.013Z,9.30
2018-06-02T05:25:40.503Z,11.68
2018-06-02T05:26:43.002Z,8.68
2018-06-02T05:27:45.491Z,9.55
2018-06-02T05:28:47.962Z,10.10
2018-06-02T05:29:51.234Z,8.60
2018-06-02T05:30:53.736Z,13.30
2018-06-02T05:31:57.007Z,8.43
2018-06-02T05:32:59.491Z,8.82
2018-06-02T05:34:01.984Z,7.40
2018-06-02T05:35:04.484Z,11.70
2018-06-02T05:36:07.002Z,11.75
2018-06-02T05:37:10.363Z,9.60
2018-06-02T05:38:12.844Z,9.65
2018-06-02T05:39:15.352Z,10.02
2018-06-02T05:40:17.852Z,17.02
2018-06-02T05:41:20.335Z,18.12
2018-06-02T05:42:26.688Z,10.70
2018-06-02T05:43:29.213Z,7.97
2018-06-02T05:44:32.467Z,7.68
2018-06-02T05:45:34.959Z,13.07
2018-06-02T05:46:38.234Z,16.05
2018-06-02T05:47:40.723Z,20.85
2018-06-02T05:48:43.989Z,7.68
2018-06-02T05:49:46.486Z,19.12
2018-06-02T05:50:49.748Z,9.13
2018-06-02T05:51:52.253Z,10.02
2018-06-02T05:52:55.498Z,8.48
2018-06-02T05:53:58.007Z,9.05
2018-06-02T05:55:00.516Z,15.30
2018-06-02T05:56:03.005Z,12.88
2018-06-02T05:57:05.605Z,8.48
2018-06-02T05:58:08.107Z,16.30
2018-06-02T05:59:10.712Z,21.48
2018-06-02T06:00:13.212Z,10.43
2018-06-02T06:01:15.700Z,8.60
2018-06-02T06:02:18.974Z,9.00
2018-06-02T06:03:21.516Z,8.45
2018-06-02T06:04:24.003Z,11.07
2018-06-02T06:05:26.512Z,21.00
2018-06-02T06:06:29.835Z,14.02
2018-06-02T06:07:32.348Z,8.23
2018-06-02T06:08:34.846Z,12.23
2018-06-02T06:09:38.109Z,14.10
2018-06-02T06:10:40.596Z,10.03
2018-06-02T06:11:43.849Z,17.98
2018-06-02T06:12:46.357Z,14.38
2018-06-02T06:13:49.650Z,14.13
2018-06-02T06:14:52.914Z,10.43
2018-06-02T06:15:55.423Z,10.82
2018-06-02T06:16:58.661Z,12.50
2018-06-02T06:18:01.169Z,14.35
2018-06-02T06:19:04.464Z,9.95
2018-06-02T06:20:07.735Z,10.27
2018-06-02T06:21:10.325Z,10.80
2018-06-02T06:22:13.605Z,10.50
2018-06-02T06:23:18.468Z,10.35
2018-06-02T06:24:20.954Z,15.10
2018-06-02T06:25:23.443Z,14.65
2018-06-02T06:26:25.929Z,10.02
2018-06-02T06:27:29.231Z,10.60
2018-06-02T06:28:34.339Z,17.33
2018-06-02T06:29:36.867Z,10.15
2018-06-02T06:30:39.600Z,16.52
2018-06-02T06:31:42.087Z,10.52
2018-06-02T06:32:44.599Z,12.80
2018-06-02T06:33:47.089Z,10.93
2018-06-02T06:34:49.647Z,15.35
2018-06-02T06:35:52.151Z,18.90
2018-06-02T06:36:54.654Z,10.93
2018-06-02T06:37:57.215Z,11.40
2018-06-02T06:39:00.493Z,11.35
2018-06-02T06:40:03.009Z,15.27
2018-06-02T06:41:05.495Z,19.77
2018-06-02T06:42:07.978Z,11.43
2018-06-02T06:43:10.527Z,10.57
2018-06-02T06:44:14.638Z,23.25
2018-06-02T06:45:17.146Z,26.12
2018-06-02T06:46:20.416Z,24.92
2018-06-02T06:47:22.909Z,25.10
2018-06-02T06:48:26.179Z,11.15
2018-06-02T06:49:28.711Z,11.90
2018-06-02T06:50:31.250Z,11.80
2018-06-02T06:51:34.510Z,12.50
2018-06-02T06:52:37.017Z,15.27
2018-06-02T06:53:40.303Z,16.05
2018-06-02T06:54:43.567Z,20.08
2018-06-02T06:55:46.071Z,11.45
2018-06-02T06:56:48.552Z,14.70
2018-06-02T06:57:51.046Z,16.58
2018-06-02T06:58:56.567Z,19.73
2018-06-02T06:59:59.052Z,18.67
2018-06-02T07:01:01.562Z,20.00
2018-06-02T07:02:04.043Z,20.25
2018-06-02T07:03:07.307Z,19.60
2018-06-02T07:04:09.831Z,21.98
2018-06-02T07:05:12.323Z,18.55
2018-06-02T07:06:14.814Z,20.35
2018-06-02T07:07:17.324Z,20.27
2018-06-02T07:08:20.579Z,18.40
2018-06-02T07:09:24.324Z,18.33
2018-06-02T07:10:26.826Z,22.13
2018-06-02T07:11:29.351Z,21.45
2018-06-02T07:12:32.628Z,18.42
2018-06-02T07:13:35.133Z,16.60
2018-06-02T07:14:37.662Z,20.17
2018-06-02T07:15:40.163Z,18.98
2018-06-02T07:16:42.646Z,18.20
2018-06-02T07:17:45.168Z,20.00
2018-06-02T07:18:47.707Z,18.60
2018-06-02T07:19:50.196Z,19.12
2018-06-02T07:22:04.979Z,19.50
2018-06-02T07:23:07.472Z,18.15
2018-06-02T07:24:10.812Z,16.80
2018-06-02T07:25:13.335Z,18.37
2018-06-02T07:26:15.854Z,18.23
2018-06-02T07:27:18.331Z,17.48
2018-06-02T07:28:20.891Z,19.05
2018-06-02T07:30:31.804Z,16.50
2018-06-02T07:31:34.297Z,19.25
2018-06-02T07:32:37.642Z,18.30
2018-06-02T07:33:40.500Z,20.50
2018-06-02T07:34:44.448Z,19.67
2018-06-02T07:35:47.694Z,18.37
2018-06-02T07:36:50.190Z,19.23
2018-06-02T07:37:52.699Z,19.90
2018-06-02T07:38:55.188Z,20.10
2018-06-02T07:39:57.705Z,21.23
2018-06-02T07:41:00.193Z,16.60
2018-06-02T07:42:03.461Z,19.08
2018-06-02T07:43:05.957Z,22.08
2018-06-02T07:44:09.353Z,24.15
2018-06-02T07:45:12.643Z,24.63
2018-06-02T07:46:16.004Z,26.87
2018-06-02T07:47:18.494Z,23.50
2018-06-02T07:48:21.754Z,22.90
2018-06-02T07:49:24.236Z,28.92
2018-06-02T07:50:26.751Z,24.80
2018-06-02T07:51:29.250Z,20.67
2018-06-02T07:52:31.757Z,25.12
2018-06-02T07:53:35.030Z,25.65
2018-06-02T07:54:37.599Z,28.83
2018-06-02T07:55:40.112Z,26.45
2018-06-02T07:56:43.390Z,28.92
2018-06-02T07:57:46.659Z,24.83
2018-06-02T07:58:49.142Z,26.40
2018-06-02T07:59:51.653Z,25.42
2018-06-02T08:00:57.913Z,21.87
2018-06-02T08:02:00.410Z,22.75
2018-06-02T08:03:02.941Z,23.48
2018-06-02T08:04:05.431Z,22.27
2018-06-02T08:05:07.950Z,22.92
2018-06-02T08:06:10.808Z,26.23
2018-06-02T08:07:13.463Z,26.62
2018-06-02T08:08:15.994Z,26.60
2018-06-02T08:09:18.485Z,24.00
2018-06-02T08:10:21.036Z,23.30
2018-06-02T08:11:23.541Z,26.83
2018-06-02T08:12:26.034Z,24.33
2018-06-02T08:13:28.523Z,23.67
2018-06-02T08:14:31.150Z,25.12
2018-06-02T08:15:37.418Z,27.30
2018-06-02T08:16:40.688Z,23.90
2018-06-02T08:17:44.281Z,26.58
2018-06-02T08:18:46.792Z,26.05
2018-06-02T08:19:49.319Z,23.10
2018-06-02T08:20:52.721Z,25.10
2018-06-02T08:21:55.253Z,25.37
2018-06-02T08:22:57.743Z,29.70
2018-06-02T08:24:00.275Z,24.63
2018-06-02T08:25:02.772Z,29.70
2018-06-02T08:26:05.278Z,28.33
2018-06-02T08:27:07.780Z,28.13
2018-06-02T08:28:10.304Z,27.75
2018-06-02T08:29:12.806Z,28.77
2018-06-02T08:30:15.298Z,26.93
2018-06-02T08:31:17.805Z,24.30
2018-06-02T08:32:21.052Z,28.02
2018-06-02T08:33:23.548Z,27.30
2018-06-02T08:34:26.033Z,25.90
2018-06-02T08:35:29.316Z,26.83
2018-06-02T08:36:38.733Z,26.93
2018-06-02T08:37:41.236Z,26.70
2018-06-02T08:38:43.759Z,27.37
2018-06-02T08:39:46.247Z,25.90
2018-06-02T08:40:48.820Z,29.80
2018-06-02T08:41:51.331Z,28.33
2018-06-02T08:42:53.824Z,28.23
2018-06-02T08:43:56.355Z,29.67
2018-06-02T08:44:59.619Z,26.27
2018-06-02T08:46:02.158Z,26.63
2018-06-02T08:47:04.691Z,29.80
2018-06-02T08:48:07.950Z,30.27
2018-06-02T08:49:10.438Z,28.03
2018-06-02T08:50:13.699Z,27.80
2018-06-02T08:51:18.063Z,30.90
2018-06-02T08:52:20.560Z,27.03
2018-06-02T08:53:23.131Z,28.50
2018-06-02T08:54:27.442Z,28.07
2018-06-02T08:55:29.877Z,27.67
2018-06-02T08:56:33.139Z,27.87
2018-06-02T08:57:35.624Z,28.83
2018-06-02T08:58:38.131Z,25.63
2018-06-02T08:59:40.651Z,29.90
2018-06-02T09:00:43.177Z,27.30
2018-06-02T09:01:45.688Z,27.83
2018-06-02T09:02:48.183Z,29.37
2018-06-02T09:03:51.458Z,27.27
2018-06-02T09:04:53.973Z,29.90
2018-06-02T09:05:56.492Z,29.03
2018-06-02T09:06:59.014Z,24.87
2018-06-02T09:08:01.532Z,30.70
2018-06-02T09:09:04.093Z,29.20
2018-06-02T09:10:06.604Z,30.00
2018-06-02T09:11:09.873Z,31.27
2018-06-02T09:12:12.360Z,26.57
2018-06-02T09:13:16.107Z,29.50
2018-06-02T09:14:18.612Z,28.23
2018-06-02T09:15:21.106Z,30.47
2018-06-02T09:16:24.198Z,24.10
2018-06-02T09:17:26.737Z,28.07
2018-06-02T09:18:30.839Z,32.97
2018-06-02T09:19:33.929Z,27.90
2018-06-02T09:20:36.414Z,31.53
2018-06-02T09:21:39.009Z,30.43
2018-06-02T09:22:41.536Z,25.03
2018-06-02T09:23:44.036Z,29.03
2018-06-02T09:24:48.119Z,26.90
2018-06-02T09:25:50.700Z,26.97
2018-06-02T09:26:53.204Z,25.60
2018-06-02T09:27:55.853Z,27.00
2018-06-02T09:28:58.333Z,25.27
2018-06-02T09:30:01.592Z,23.50
2018-06-02T09:31:04.099Z,22.27
2018-06-02T09:32:07.375Z,27.60
2018-06-02T09:33:10.685Z,23.60
2018-06-02T09:34:13.201Z,25.97
2018-06-02T09:35:15.746Z,27.13
2018-06-02T09:36:18.189Z,28.37
2018-06-02T09:37:22.183Z,23.00
2018-06-02T09:38:27.255Z,27.17
2018-06-02T09:39:29.763Z,24.87
2018-06-02T09:40:32.253Z,27.43
2018-06-02T09:41:34.759Z,25.13
2018-06-02T09:42:39.091Z,26.93
2018-06-02T09:43:41.584Z,21.97
2018-06-02T09:44:44.079Z,25.40
2018-06-02T09:45:47.326Z,23.90
2018-06-02T09:46:49.811Z,26.17
2018-06-02T09:47:52.365Z,24.80
2018-06-02T09:48:54.936Z,24.00
2018-06-02T09:49:57.420Z,26.27
2018-06-02T09:51:00.064Z,26.13
2018-06-02T09:52:02.566Z,22.10
2018-06-02T09:53:05.060Z,23.80
2018-06-02T09:54:07.553Z,24.80
2018-06-02T09:55:10.381Z,24.47
2018-06-02T09:56:12.881Z,22.00
2018-06-02T09:57:15.459Z,26.30
2018-06-02T09:58:19.231Z,24.77
2018-06-02T09:59:21.759Z,22.23
2018-06-02T10:00:26.160Z,24.73
2018-06-02T10:01:29.399Z,23.10
2018-06-02T10:02:32.000Z,27.23
2018-06-02T10:03:35.964Z,25.40
2018-06-02T10:04:42.944Z,26.80
2018-06-02T10:05:45.420Z,25.90
2018-06-02T10:06:48.148Z,25.57
2018-06-02T10:07:51.523Z,20.60
2018-06-02T10:08:54.035Z,21.30
2018-06-02T10:09:56.813Z,19.73
2018-06-02T10:10:59.346Z,22.47
2018-06-02T10:12:01.844Z,22.00
2018-06-02T10:13:04.338Z,19.93
2018-06-02T10:14:06.898Z,25.10
2018-06-02T10:15:09.475Z,21.87
2018-06-02T10:16:12.037Z,22.37
2018-06-02T10:17:14.520Z,23.37
2018-06-02T10:18:17.017Z,23.37
2018-06-02T10:19:19.536Z,23.30
2018-06-02T10:20:22.053Z,26.43
2018-06-02T10:21:24.660Z,25.80
2018-06-02T10:22:27.309Z,26.23
2018-06-02T10:23:30.101Z,28.90
2018-06-02T10:24:32.669Z,26.70
2018-06-02T10:25:35.311Z,23.40
2018-06-02T10:26:37.828Z,24.80
2018-06-02T10:27:40.336Z,23.10
2018-06-02T10:28:42.815Z,24.50
2018-06-02T10:29:46.090Z,20.43
2018-06-02T10:30:48.588Z,25.80
2018-06-02T10:31:51.098Z,23.43
2018-06-02T10:32:53.608Z,21.70
2018-06-02T10:33:56.113Z,22.23
2018-06-02T10:34:58.609Z,21.23
2018-06-02T10:36:01.122Z,23.17
2018-06-02T10:37:06.074Z,22.87
2018-06-02T10:38:08.596Z,21.80
2018-06-02T10:39:11.162Z,23.83
2018-06-02T10:40:13.694Z,23.80
2018-06-02T10:41:16.179Z,22.27
2018-06-02T10:42:18.726Z,24.80
2018-06-02T10:43:21.227Z,26.00
2018-06-02T10:44:23.736Z,23.73
2018-06-02T10:45:27.008Z,24.23
2018-06-02T10:46:29.536Z,20.87
2018-06-02T10:47:32.015Z,25.57
2018-06-02T10:48:34.515Z,24.83
2018-06-02T10:49:37.130Z,26.37
2018-06-02T10:50:40.465Z,27.93
2018-06-02T10:51:44.498Z,24.20
2018-06-02T10:52:46.999Z,26.87
2018-06-02T10:53:49.499Z,25.37
2018-06-02T10:54:52.012Z,25.03
2018-06-02T10:55:54.554Z,28.60
2018-06-02T10:56:57.054Z,28.70
2018-06-02T10:57:59.557Z,25.80
2018-06-02T10:59:02.035Z,30.17
2018-06-02T11:00:04.533Z,28.77
2018-06-02T11:01:07.053Z,31.27
2018-06-02T11:02:09.568Z,29.40
2018-06-02T11:03:12.162Z,26.53
2018-06-02T11:04:14.669Z,26.17
2018-06-02T11:05:17.231Z,26.87
2018-06-02T11:06:19.736Z,26.30
2018-06-02T11:07:22.245Z,27.60
2018-06-02T11:08:24.763Z,28.90
2018-06-02T11:09:28.033Z,27.90
2018-06-02T11:10:32.476Z,26.17
2018-06-02T11:11:35.729Z,29.57
2018-06-02T11:12:38.219Z,26.97
2018-06-02T11:13:41.478Z,26.53
2018-06-02T11:14:43.989Z,28.80
2018-06-02T11:15:47.282Z,29.67
2018-06-02T11:16:50.554Z,33.00
2018-06-02T11:17:53.812Z,29.77
2018-06-02T11:18:57.679Z,29.70
2018-06-02T11:20:00.175Z,31.97
2018-06-02T11:21:02.717Z,32.93
2018-06-02T11:22:05.282Z,31.80
2018-06-02T11:23:08.593Z,31.63
2018-06-02T11:24:11.135Z,30.10
2018-06-02T11:25:15.534Z,30.43
2018-06-02T11:26:18.109Z,30.47
2018-06-02T11:27:20.622Z,32.00
2018-06-02T11:28:23.154Z,32.73
2018-06-02T11:29:25.647Z,30.70
2018-06-02T11:30:29.500Z,34.10
2018-06-02T11:31:32.033Z,33.70
2018-06-02T11:32:34.529Z,33.30
2018-06-02T11:33:37.070Z,31.53
2018-06-02T11:34:39.588Z,29.67
2018-06-02T11:35:42.115Z,30.27
2018-06-02T11:36:47.647Z,28.50
2018-06-02T11:37:50.140Z,29.20
2018-06-02T11:38:52.635Z,29.70
2018-06-02T11:39:55.125Z,28.60
2018-06-02T11:40:57.676Z,28.77
2018-06-02T11:42:00.156Z,29.83
2018-06-02T11:43:02.751Z,29.30
2018-06-02T11:44:06.042Z,27.00
2018-06-02T11:45:08.564Z,28.27
2018-06-02T11:46:11.880Z,27.27
2018-06-02T11:47:14.471Z,26.37
2018-06-02T11:48:16.975Z,25.90
2018-06-02T11:49:19.455Z,26.43
2018-06-02T11:50:21.961Z,27.17
2018-06-02T11:51:24.476Z,27.17
2018-06-02T11:52:27.006Z,26.17
2018-06-02T11:53:29.541Z,26.00
2018-06-02T11:54:32.032Z,26.80
2018-06-02T11:55:34.565Z,26.70
2018-06-02T11:56:37.073Z,23.60
2018-06-02T11:57:39.590Z,23.13
2018-06-02T11:58:42.119Z,20.70
2018-06-02T11:59:44.642Z,19.47
2018-06-02T12:00:47.138Z,18.53
2018-06-02T12:01:49.653Z,17.40
2018-06-02T12:02:52.159Z,18.50
2018-06-02T12:03:55.431Z,18.17
2018-06-02T12:04:57.937Z,18.53
2018-06-02T12:06:00.455Z,19.70
2018-06-02T12:07:02.961Z,19.73
2018-06-02T12:08:06.220Z,20.60
2018-06-02T12:09:09.230Z,20.80
2018-06-02T12:10:31.144Z,20.07
2018-06-02T12:11:33.647Z,19.73
2018-06-02T12:12:36.907Z,19.90
2018-06-02T12:13:39.449Z,18.63
2018-06-02T12:14:41.941Z,19.70
2018-06-02T12:15:44.445Z,18.20
2018-06-02T12:16:46.959Z,18.67
2018-06-02T12:17:49.497Z,19.60
2018-06-02T12:18:52.004Z,17.90
2018-06-02T12:19:54.520Z,17.47
2018-06-02T12:20:57.043Z,17.70
2018-06-02T12:21:59.535Z,17.90
2018-06-02T12:23:02.057Z,17.30
2018-06-02T12:24:04.556Z,16.90
2018-06-02T12:25:07.117Z,17.80
2018-06-02T12:26:09.672Z,17.13
2018-06-02T12:27:12.238Z,18.20
2018-06-02T12:28:14.935Z,16.20
2018-06-02T12:29:17.500Z,16.57
2018-06-02T12:30:19.989Z,16.60
2018-06-02T12:31:22.527Z,17.27
2018-06-02T12:32:25.031Z,16.30
2018-06-02T12:33:27.680Z,17.70
2018-06-02T12:34:30.215Z,16.70
2018-06-02T12:35:33.478Z,19.67
2018-06-02T12:36:35.993Z,18.87
2018-06-02T12:37:39.263Z,18.40
2018-06-02T12:38:42.541Z,17.37
2018-06-02T12:39:45.044Z,17.90
2018-06-02T12:40:47.532Z,17.60
2018-06-02T12:41:50.048Z,16.20
2018-06-02T12:42:52.566Z,14.97
2018-06-02T12:43:55.059Z,14.93
2018-06-02T12:44:57.559Z,13.97
2018-06-02T12:46:00.045Z,14.43
2018-06-02T12:47:02.534Z,14.43
2018-06-02T12:48:05.835Z,15.00
2018-06-02T12:49:08.399Z,15.23
2018-06-02T12:50:10.910Z,14.17
2018-06-02T12:51:13.444Z,14.20
2018-06-02T12:52:15.924Z,13.77
2018-06-02T12:53:18.491Z,14.57
2018-06-02T12:54:20.992Z,14.70
2018-06-02T12:55:23.494Z,14.50
2018-06-02T12:56:25.977Z,15.47
2018-06-02T12:57:29.250Z,16.03
2018-06-02T12:58:31.756Z,14.67
2018-06-02T12:59:34.276Z,15.50
2018-06-02T13:00:36.777Z,15.80
2018-06-02T13:01:40.061Z,16.17
2018-06-02T13:02:42.549Z,15.70
2018-06-02T13:03:45.847Z,16.07
2018-06-02T13:04:48.345Z,17.20
2018-06-02T13:05:51.627Z,15.27
2018-06-02T13:06:54.117Z,16.80
2018-06-02T13:07:56.626Z,17.93
2018-06-02T13:08:59.910Z,15.67
2018-06-02T13:10:02.404Z,15.20
2018-06-02T13:11:04.942Z,17.43
2018-06-02T13:12:07.454Z,15.30
2018-06-02T13:13:10.009Z,17.83
2018-06-02T13:14:14.252Z,17.37
2018-06-02T13:15:16.800Z,17.53
2018-06-02T13:16:19.298Z,17.17
2018-06-02T13:17:21.930Z,16.60
2018-06-02T13:18:24.450Z,16.43
2018-06-02T13:19:26.960Z,16.33
2018-06-02T13:20:29.467Z,16.90
2018-06-02T13:21:31.957Z,17.57
2018-06-02T13:22:35.198Z,17.87
2018-06-02T13:23:39.038Z,16.47
2018-06-02T13:24:41.527Z,18.00
2018-06-02T13:25:44.027Z,17.60
2018-06-02T13:26:46.529Z,16.43
2018-06-02T13:27:49.077Z,18.53
2018-06-02T13:28:51.606Z,18.07
2018-06-02T13:29:54.112Z,18.07
2018-06-02T13:30:56.597Z,16.73
2018-06-02T13:31:59.845Z,18.40
2018-06-02T13:33:03.512Z,17.47
2018-06-02T13:34:06.569Z,16.97
2018-06-02T13:35:09.079Z,17.10
2018-06-02T13:36:12.239Z,18.43
2018-06-02T13:37:14.800Z,17.80
2018-06-02T13:38:18.058Z,17.10
2018-06-02T13:40:29.957Z,15.30